createdAt,value
2023-03-28T00:01:43.188Z,98129.15
2023-03-28T00:04:17.555Z,98128.23
2023-03-28T00:06:52.173Z,98125.62
2023-03-28T00:09:26.275Z,98128.98
2023-03-28T00:11:59.793Z,98129.80
2023-03-28T00:14:35.052Z,98121.98
2023-03-28T00:17:08.535Z,98124.52
2023-03-28T00:19:42.126Z,98131.37
2023-03-28T00:22:16.178Z,98125.33
2023-03-28T00:24:50.876Z,98128.74
2023-03-28T00:27:24.302Z,98132.16
2023-03-28T00:29:57.677Z,98126.13
2023-03-28T00:32:31.282Z,98131.25
2023-03-28T00:35:05.122Z,98133.78
2023-03-28T00:37:38.534Z,98139.75
2023-03-28T00:40:14.588Z,98146.61
2023-03-28T00:42:48.052Z,98144.00
2023-03-28T00:45:22.869Z,98149.97
2023-03-28T00:48:00.486Z,98150.77
2023-03-28T00:50:36.874Z,98147.28
2023-03-28T00:53:13.881Z,98157.55
2023-03-28T00:55:49.624Z,98147.98
2023-03-28T00:58:26.861Z,98154.01
2023-03-28T01:01:00.582Z,98163.38
2023-03-28T01:03:37.764Z,98162.44
2023-03-28T01:06:12.792Z,98170.98
2023-03-28T01:08:47.974Z,98166.66
2023-03-28T01:11:22.189Z,98170.03
2023-03-28T01:13:56.752Z,98172.56
2023-03-28T01:16:32.636Z,98175.97
2023-03-28T01:19:10.678Z,98181.07
2023-03-28T01:22:11.061Z,98180.09
2023-03-28T01:25:14.559Z,98184.28
2023-03-28T01:27:52.315Z,98179.93
2023-03-28T01:30:47.287Z,98180.73
2023-03-28T01:33:54.543Z,98183.19
2023-03-28T01:37:05.747Z,98188.26
2023-03-28T01:39:51.840Z,98193.32
2023-03-28T01:42:30.037Z,98182.04
2023-03-28T01:45:08.449Z,98188.91
2023-03-28T01:47:45.308Z,98185.42
2023-03-28T01:50:21.813Z,98190.53
2023-03-28T01:53:00.046Z,98192.26
2023-03-28T01:55:41.533Z,98187.96
2023-03-28T01:58:16.115Z,98192.28
2023-03-28T02:00:54.652Z,98188.79
2023-03-28T02:03:31.925Z,98193.09
2023-03-28T02:06:10.330Z,98199.89
2023-03-28T02:08:47.692Z,98192.13
2023-03-28T02:11:30.230Z,98204.19
2023-03-28T02:14:24.241Z,98199.89
2023-03-28T02:17:05.552Z,98204.03
2023-03-28T02:19:45.577Z,98203.14
2023-03-28T02:22:36.849Z,98203.91
2023-03-28T02:25:18.648Z,98209.86
2023-03-28T02:27:59.332Z,98211.51
2023-03-28T02:30:51.866Z,98215.80
2023-03-28T02:33:38.120Z,98214.02
2023-03-28T02:36:20.096Z,98222.61
2023-03-28T02:38:59.619Z,98218.25
2023-03-28T02:41:37.545Z,98221.62
2023-03-28T02:44:20.929Z,98218.19
2023-03-28T02:47:01.081Z,98225.02
2023-03-28T02:49:50.869Z,98225.02
2023-03-28T02:52:30.930Z,98229.28
2023-03-28T02:55:08.414Z,98231.85
2023-03-28T02:57:49.234Z,98238.72
2023-03-28T03:00:23.535Z,98251.66
2023-03-28T03:02:58.447Z,98233.63
2023-03-28T03:05:31.948Z,98241.39
2023-03-28T03:08:06.502Z,98251.69
2023-03-28T03:10:41.334Z,98250.00
2023-03-28T03:13:16.879Z,98256.11
2023-03-28T03:15:50.962Z,98263.96
2023-03-28T03:18:26.505Z,98251.98
2023-03-28T03:21:02.021Z,98263.23
2023-03-28T03:23:36.648Z,98259.03
2023-03-28T03:26:11.367Z,98264.25
2023-03-28T03:28:46.546Z,98266.92
2023-03-28T03:31:21.665Z,98274.65
2023-03-28T03:36:55.413Z,98278.33
2023-03-28T03:39:28.872Z,98284.16
2023-03-28T03:42:02.462Z,98279.92
2023-03-28T03:44:37.843Z,98288.64
2023-03-28T03:47:11.782Z,98285.33
2023-03-28T03:49:44.993Z,98282.81
2023-03-28T03:52:18.549Z,98288.89
2023-03-28T03:54:51.822Z,98288.09
2023-03-28T03:57:25.786Z,98285.61
2023-03-28T04:00:02.280Z,98285.66
2023-03-28T04:02:36.710Z,98296.09
2023-03-28T04:05:12.184Z,98290.97
2023-03-28T04:07:47.278Z,98292.78
2023-03-28T04:10:22.621Z,98304.93
2023-03-28T04:12:56.333Z,98301.58
2023-03-28T04:15:30.146Z,98299.98
2023-03-28T04:18:08.271Z,98304.39
2023-03-28T04:20:43.573Z,98305.38
2023-03-28T04:23:18.662Z,98299.47
2023-03-28T04:25:54.182Z,98299.55
2023-03-28T04:28:29.508Z,98297.06
2023-03-28T04:31:04.635Z,98297.20
2023-03-28T04:33:48.580Z,98299.95
2023-03-28T04:36:25.171Z,98293.17
2023-03-28T04:39:01.873Z,98283.83
2023-03-28T04:41:53.770Z,98291.62
2023-03-28T04:44:29.421Z,98294.28
2023-03-28T04:47:04.531Z,98294.33
2023-03-28T04:49:38.044Z,98298.66
2023-03-28T04:52:11.820Z,98303.04
2023-03-28T04:54:47.015Z,98308.36
2023-03-28T04:57:22.399Z,98306.77
2023-03-28T04:59:58.043Z,98307.75
2023-03-28T05:02:34.913Z,98311.38
2023-03-28T05:05:11.212Z,98320.94
2023-03-28T05:07:45.267Z,98315.91
2023-03-28T05:10:20.174Z,98324.63
2023-03-28T05:12:54.205Z,98317.88
2023-03-28T05:15:29.036Z,98327.56
2023-03-28T05:18:08.691Z,98333.83
2023-03-28T05:20:42.190Z,98333.17
2023-03-28T05:23:15.943Z,98329.06
2023-03-28T05:25:53.742Z,98326.70
2023-03-28T05:28:29.252Z,98327.78
2023-03-28T05:31:02.497Z,98331.48
2023-03-28T05:33:37.788Z,98340.37
2023-03-28T05:36:13.116Z,98330.25
2023-03-28T05:38:47.673Z,98337.32
2023-03-28T05:41:22.329Z,98331.50
2023-03-28T05:43:55.619Z,98342.90
2023-03-28T05:46:30.799Z,98343.09
2023-03-28T05:49:04.330Z,98345.80
2023-03-28T05:51:37.600Z,98338.12
2023-03-28T05:54:11.228Z,98340.92
2023-03-28T05:56:44.699Z,98343.62
2023-03-28T05:59:18.405Z,98355.87
2023-03-28T06:01:52.775Z,98358.58
2023-03-28T06:04:26.371Z,98356.97
2023-03-28T06:07:03.066Z,98366.56
2023-03-28T06:09:36.897Z,98363.20
2023-03-28T06:12:10.791Z,98358.12
2023-03-28T06:14:45.914Z,98356.52
2023-03-28T06:17:21.193Z,98363.50
2023-03-28T06:19:56.428Z,98360.14
2023-03-28T06:22:29.977Z,98367.15
2023-03-28T06:25:08.786Z,98363.75
2023-03-28T06:27:42.464Z,98360.36
2023-03-28T06:30:17.644Z,98370.80
2023-03-28T06:32:52.965Z,98368.23
2023-03-28T06:35:26.777Z,98371.66
2023-03-28T06:38:00.640Z,98362.89
2023-03-28T06:40:34.399Z,98368.89
2023-03-28T06:43:08.154Z,98370.48
2023-03-28T06:45:47.207Z,98368.52
2023-03-28T06:48:21.403Z,98361.08
2023-03-28T06:51:02.632Z,98362.91
2023-03-28T06:53:36.555Z,98361.05
2023-03-28T06:56:11.753Z,98370.50
2023-03-28T06:58:45.414Z,98365.07
2023-03-28T07:01:20.325Z,98362.48
2023-03-28T07:03:57.878Z,98363.57
2023-03-28T07:06:32.088Z,98355.16
2023-03-28T07:09:06.593Z,98349.70
2023-03-28T07:11:48.215Z,98360.84
2023-03-28T07:14:23.260Z,98355.03
2023-03-28T07:16:57.393Z,98358.17
2023-03-28T07:19:31.817Z,98354.42
2023-03-28T07:22:05.736Z,98361.89
2023-03-28T07:24:40.947Z,98367.34
2023-03-28T07:27:17.198Z,98367.86
2023-03-28T07:29:51.265Z,98364.23
2023-03-28T07:32:27.535Z,98368.00
2023-03-28T07:35:00.490Z,98363.04
2023-03-28T07:37:36.206Z,98369.61
2023-03-28T07:40:16.530Z,98370.75
2023-03-28T07:42:51.081Z,98370.63
2023-03-28T07:45:24.684Z,98374.36
2023-03-28T07:47:58.537Z,98367.03
2023-03-28T07:50:32.761Z,98369.08
2023-03-28T07:53:06.360Z,98367.18
2023-03-28T07:55:54.240Z,98369.37
2023-03-28T07:58:17.766Z,98370.80
2023-03-28T08:00:52.125Z,98380.22
2023-03-28T08:03:36.605Z,98387.67
2023-03-28T08:06:28.609Z,98393.69
2023-03-28T08:08:50.460Z,98394.27
2023-03-28T08:11:25.663Z,98400.29
2023-03-28T08:14:00.059Z,98397.55
2023-03-28T08:16:35.856Z,98402.08
2023-03-28T08:19:11.776Z,98399.30
2023-03-28T08:22:02.841Z,98399.73
2023-03-28T08:24:37.977Z,98397.32
2023-03-28T08:27:16.401Z,98405.17
2023-03-28T08:29:51.853Z,98407.62
2023-03-28T08:32:25.529Z,98403.13
2023-03-28T08:35:01.718Z,98408.20
2023-03-28T08:37:35.598Z,98413.61
2023-03-28T08:40:16.432Z,98409.91
2023-03-28T08:43:06.101Z,98409.00
2023-03-28T08:45:46.753Z,98408.44
2023-03-28T08:48:25.749Z,98400.67
2023-03-28T08:51:05.740Z,98393.27
2023-03-28T08:53:44.308Z,98398.29
2023-03-28T08:56:19.150Z,98398.05
2023-03-28T08:58:57.221Z,98402.03
2023-03-28T09:01:33.059Z,98387.02
2023-03-28T09:04:07.660Z,98394.09
2023-03-28T09:06:45.277Z,98389.39
2023-03-28T09:09:39.311Z,98382.93
2023-03-28T09:12:26.864Z,98383.63
2023-03-28T09:15:18.795Z,98378.06
2023-03-28T09:18:00.527Z,98390.70
2023-03-28T09:20:37.969Z,98394.91
2023-03-28T09:23:22.337Z,98392.27
2023-03-28T09:26:03.145Z,98392.91
2023-03-28T09:28:41.952Z,98390.58
2023-03-28T09:31:18.377Z,98390.73
2023-03-28T09:33:54.306Z,98383.66
2023-03-28T09:36:45.651Z,98376.71
2023-03-28T09:39:12.297Z,98359.64
2023-03-28T09:41:48.997Z,98372.67
2023-03-28T09:47:20.297Z,98376.64
2023-03-28T09:50:05.622Z,98373.42
2023-03-28T09:52:32.191Z,98375.78
2023-03-28T09:55:06.266Z,98362.60
2023-03-28T09:58:01.347Z,98356.53
2023-03-28T10:00:39.969Z,98372.51
2023-03-28T10:03:25.903Z,98354.30
2023-03-28T10:06:01.176Z,98360.48
2023-03-28T10:08:41.905Z,98363.88
2023-03-28T10:11:29.519Z,98367.79
2023-03-28T10:14:05.051Z,98364.86
2023-03-28T10:16:38.732Z,98363.03
2023-03-28T10:19:27.395Z,98361.47
2023-03-28T10:22:08.813Z,98381.49
2023-03-28T10:24:45.936Z,98396.39
2023-03-28T10:27:24.290Z,98400.72
2023-03-28T10:30:00.088Z,98388.31
2023-03-28T10:32:36.372Z,98387.22
2023-03-28T10:35:21.406Z,98384.17
2023-03-28T10:37:58.652Z,98380.56
2023-03-28T10:40:34.759Z,98381.38
2023-03-28T10:43:32.815Z,98381.52
2023-03-28T10:46:20.265Z,98388.41
2023-03-28T10:49:16.413Z,98384.77
2023-03-28T10:51:51.597Z,98383.89
2023-03-28T10:54:45.430Z,98382.20
2023-03-28T10:57:23.536Z,98378.67
2023-03-28T11:00:02.249Z,98379.45
2023-03-28T11:03:02.715Z,98385.96
2023-03-28T11:05:55.009Z,98378.91
2023-03-28T11:11:26.127Z,98377.95
2023-03-28T11:14:03.429Z,98377.51
2023-03-28T11:16:43.895Z,98385.23
2023-03-28T11:19:28.379Z,98367.33
2023-03-28T11:22:05.901Z,98379.73
2023-03-28T11:24:43.784Z,98374.55
2023-03-28T11:27:24.858Z,98366.66
2023-03-28T11:30:03.309Z,98359.84
2023-03-28T11:32:38.227Z,98352.98
2023-03-28T11:35:17.564Z,98358.80
2023-03-28T11:37:54.067Z,98362.28
2023-03-28T11:40:30.879Z,98363.47
2023-03-28T11:43:10.633Z,98373.79
2023-03-28T11:45:52.669Z,98361.86
2023-03-28T11:48:28.578Z,98368.48
2023-03-28T11:51:07.778Z,98367.91
2023-03-28T11:53:58.808Z,98354.48
2023-03-28T11:56:42.603Z,98361.95
2023-03-28T11:59:22.981Z,98354.52
2023-03-28T12:02:00.319Z,98347.05
2023-03-28T12:04:37.132Z,98349.03
2023-03-28T12:07:15.929Z,98348.30
2023-03-28T12:10:04.624Z,98336.07
2023-03-28T12:12:42.413Z,98333.53
2023-03-28T12:15:19.389Z,98334.66
2023-03-28T12:18:03.458Z,98341.91
2023-03-28T12:20:38.889Z,98338.53
2023-03-28T12:23:20.635Z,98326.58
2023-03-28T12:26:19.323Z,98328.77
2023-03-28T12:28:57.078Z,98317.50
2023-03-28T12:31:33.854Z,98326.19
2023-03-28T12:34:12.340Z,98321.02
2023-03-28T12:36:56.390Z,98332.66
2023-03-28T12:39:35.625Z,98335.44
2023-03-28T12:42:13.866Z,98332.33
2023-03-28T12:44:50.514Z,98333.75
2023-03-28T12:47:27.401Z,98340.64
2023-03-28T12:50:03.889Z,98332.27
2023-03-28T12:52:42.208Z,98329.79
2023-03-28T12:55:45.926Z,98321.44
2023-03-28T12:58:28.789Z,98315.95
2023-03-28T13:01:33.850Z,98318.05
2023-03-28T13:04:26.360Z,98326.78
2023-03-28T13:07:06.740Z,98320.83
2023-03-28T13:09:55.520Z,98318.17
2023-03-28T13:12:41.333Z,98316.91
2023-03-28T13:15:33.581Z,98310.52
2023-03-28T13:21:46.420Z,98323.31
2023-03-28T13:24:33.694Z,98320.22
2023-03-28T13:27:10.606Z,98315.31
2023-03-28T13:29:49.350Z,98309.10
2023-03-28T13:32:25.206Z,98305.47
2023-03-28T13:35:01.868Z,98294.50
2023-03-28T13:37:49.206Z,98291.72
2023-03-28T13:40:45.600Z,98303.53
2023-03-28T13:43:31.724Z,98306.46
2023-03-28T13:46:08.785Z,98311.08
2023-03-28T13:48:47.659Z,98312.38
2023-03-28T13:51:24.234Z,98319.41
2023-03-28T13:53:57.987Z,98317.37
2023-03-28T13:56:34.221Z,98307.52
2023-03-28T13:59:13.100Z,98304.16
2023-03-28T14:01:51.000Z,98297.71
2023-03-28T14:04:27.233Z,98291.50
2023-03-28T14:07:01.401Z,98294.70
2023-03-28T14:09:36.743Z,98296.58
2023-03-28T14:12:14.112Z,98292.86
2023-03-28T14:14:51.246Z,98282.31
2023-03-28T14:17:27.346Z,98291.75
2023-03-28T14:20:05.025Z,98294.86
2023-03-28T14:22:45.735Z,98279.53
2023-03-28T14:25:16.504Z,98293.36
2023-03-28T14:27:51.451Z,98293.01
2023-03-28T14:30:26.610Z,98282.16
2023-03-28T14:33:02.317Z,98297.00
2023-03-28T14:35:37.655Z,98290.56
2023-03-28T14:38:14.685Z,98288.52
2023-03-28T14:40:48.578Z,98284.92
2023-03-28T14:43:25.186Z,98277.56
2023-03-28T14:46:02.599Z,98282.34
2023-03-28T14:48:38.281Z,98275.18
2023-03-28T14:51:16.987Z,98279.35
2023-03-28T14:53:51.254Z,98274.97
2023-03-28T14:56:28.351Z,98276.52
2023-03-28T14:59:04.448Z,98286.36
2023-03-28T15:01:38.451Z,98281.49
2023-03-28T15:04:14.261Z,98279.29
2023-03-28T15:06:56.435Z,98279.78
2023-03-28T15:09:33.234Z,98289.22
2023-03-28T15:12:09.296Z,98285.98
2023-03-28T15:14:44.496Z,98279.95
2023-03-28T15:17:21.463Z,98285.45
2023-03-28T15:19:58.601Z,98287.30
2023-03-28T15:22:33.530Z,98289.72
2023-03-28T15:25:09.078Z,98279.83
2023-03-28T15:27:46.356Z,98286.60
2023-03-28T15:30:21.912Z,98297.98
2023-03-28T15:32:57.441Z,98288.63
2023-03-28T15:35:33.958Z,98289.82
2023-03-28T15:38:11.879Z,98289.58
2023-03-28T15:40:45.190Z,98298.12
2023-03-28T15:43:41.362Z,98298.58
2023-03-28T15:46:16.514Z,98312.85
2023-03-28T15:48:50.494Z,98313.90
2023-03-28T15:51:24.159Z,98302.59
2023-03-28T15:54:00.187Z,98309.56
2023-03-28T15:56:36.415Z,98306.97
2023-03-28T15:59:16.114Z,98303.64
2023-03-28T16:01:49.798Z,98301.17
2023-03-28T16:04:28.892Z,98308.23
2023-03-28T16:07:12.683Z,98300.45
2023-03-28T16:09:46.915Z,98307.45
2023-03-28T16:12:21.028Z,98303.12
2023-03-28T16:15:06.248Z,98304.86
2023-03-28T16:17:50.729Z,98306.57
2023-03-28T16:20:26.307Z,98307.43
2023-03-28T16:23:01.713Z,98298.75
2023-03-28T16:25:35.658Z,98308.30
2023-03-28T16:28:09.303Z,98299.59
2023-03-28T16:30:43.272Z,98313.50
2023-03-28T16:33:19.791Z,98317.85
2023-03-28T16:35:53.271Z,98317.91
2023-03-28T16:38:26.756Z,98310.09
2023-03-28T16:41:00.032Z,98312.69
2023-03-28T16:43:33.596Z,98310.08
2023-03-28T16:46:08.821Z,98318.75
2023-03-28T16:48:43.037Z,98311.82
2023-03-28T16:51:16.703Z,98318.75
2023-03-28T16:53:50.230Z,98319.59
2023-03-28T16:56:27.251Z,98315.20
2023-03-28T16:59:00.664Z,98329.93
2023-03-28T17:01:34.429Z,98322.11
2023-03-28T17:04:08.717Z,98322.08
2023-03-28T17:06:43.013Z,98322.05
2023-03-28T17:09:16.511Z,98328.03
2023-03-28T17:11:50.142Z,98332.37
2023-03-28T17:14:23.654Z,98321.09
2023-03-28T17:16:57.093Z,98340.98
2023-03-28T17:19:30.936Z,98343.53
2023-03-28T17:22:04.729Z,98334.85
2023-03-28T17:24:38.412Z,98333.99
2023-03-28T17:27:15.508Z,98335.70
2023-03-28T17:29:49.245Z,98333.95
2023-03-28T17:32:22.967Z,98339.10
2023-03-28T17:34:56.620Z,98324.37
2023-03-28T17:37:30.345Z,98335.60
2023-03-28T17:40:04.280Z,98332.15
2023-03-28T17:42:37.260Z,98327.77
2023-03-28T17:45:12.461Z,98327.77
2023-03-28T17:47:45.841Z,98342.44
2023-03-28T17:50:19.369Z,98335.49
2023-03-28T17:52:55.365Z,98343.34
2023-03-28T17:55:29.085Z,98345.03
2023-03-28T17:58:02.850Z,98332.89
2023-03-28T18:00:36.275Z,98350.16
2023-03-28T18:03:09.855Z,98351.84
2023-03-28T18:05:46.592Z,98342.30
2023-03-28T18:08:19.919Z,98350.03
2023-03-28T18:10:53.481Z,98349.13
2023-03-28T18:13:27.043Z,98345.67
2023-03-28T18:16:01.427Z,98333.56
2023-03-28T18:18:36.232Z,98334.41
2023-03-28T18:21:11.536Z,98332.70
2023-03-28T18:23:44.751Z,98333.63
2023-03-28T18:26:18.490Z,98340.50
2023-03-28T18:28:51.961Z,98351.67
2023-03-28T18:31:28.470Z,98350.81
2023-03-28T18:34:03.630Z,98350.80
2023-03-28T18:36:39.562Z,98353.41
2023-03-28T18:39:13.509Z,98350.80
2023-03-28T18:41:46.910Z,98347.37
2023-03-28T18:44:20.862Z,98354.27
2023-03-28T18:46:55.635Z,98350.80
2023-03-28T18:49:29.090Z,98358.57
2023-03-28T18:52:04.927Z,98355.98
2023-03-28T18:54:38.573Z,98350.74
2023-03-28T18:57:12.253Z,98361.10
2023-03-28T18:59:58.691Z,98359.38
2023-03-28T19:02:46.107Z,98358.57
2023-03-28T19:05:20.253Z,98359.42
2023-03-28T19:07:53.782Z,98349.89
2023-03-28T19:10:27.291Z,98360.33
2023-03-28T19:13:00.648Z,98366.43
2023-03-28T19:15:34.092Z,98351.73
2023-03-28T19:18:08.195Z,98363.78
2023-03-28T19:20:42.842Z,98356.84
2023-03-28T19:23:16.623Z,98347.30
2023-03-28T19:25:50.671Z,98364.61
2023-03-28T19:28:26.570Z,98362.02
2023-03-28T19:31:01.532Z,98348.14
2023-03-28T19:33:35.372Z,98349.88
2023-03-28T19:36:12.823Z,98351.52
2023-03-28T19:38:46.354Z,98348.92
2023-03-28T19:41:22.278Z,98348.92
2023-03-28T19:43:56.288Z,98347.17
2023-03-28T19:46:35.416Z,98346.27
2023-03-28T19:49:09.106Z,98350.55
2023-03-28T19:51:42.593Z,98340.13
2023-03-28T19:54:16.690Z,98344.45
2023-03-28T19:56:50.286Z,98344.36
2023-03-28T19:59:24.866Z,98352.09
2023-03-28T20:01:58.515Z,98354.64
2023-03-28T20:04:32.045Z,98358.09
2023-03-28T20:07:05.771Z,98351.16
2023-03-28T20:09:40.823Z,98350.30
2023-03-28T20:12:14.343Z,98349.41
2023-03-28T20:14:48.072Z,98348.54
2023-03-28T20:17:21.589Z,98352.83
2023-03-28T20:19:55.164Z,98349.38
2023-03-28T20:22:33.477Z,98337.27
2023-03-28T20:25:11.816Z,98347.64
2023-03-28T20:27:50.648Z,98339.84
2023-03-28T20:30:29.027Z,98341.53
2023-03-28T20:33:05.083Z,98338.09
2023-03-28T20:35:42.665Z,98335.50
2023-03-28T20:38:16.696Z,98338.95
2023-03-28T20:40:51.875Z,98320.80
2023-03-28T20:43:28.418Z,98329.48
2023-03-28T20:46:03.229Z,98315.63
2023-03-28T20:48:40.279Z,98324.24
2023-03-28T20:51:24.539Z,98325.13
2023-03-28T20:54:03.789Z,98330.27
2023-03-28T20:56:37.656Z,98332.89
2023-03-28T20:59:12.891Z,98329.38
2023-03-28T21:01:50.173Z,98322.45
2023-03-28T21:04:25.884Z,98308.60
2023-03-28T21:07:02.903Z,98315.53
2023-03-28T21:09:42.278Z,98316.30
2023-03-28T21:12:18.358Z,98299.05
2023-03-28T21:14:52.622Z,98306.76
2023-03-28T21:17:29.199Z,98303.30
2023-03-28T21:20:05.355Z,98292.89
2023-03-28T21:22:38.608Z,98304.09
2023-03-28T21:25:14.307Z,98300.64
2023-03-28T21:27:48.520Z,98294.55
2023-03-28T21:30:22.422Z,98291.95
2023-03-28T21:33:03.103Z,98304.88
2023-03-28T21:35:40.269Z,98297.97
2023-03-28T21:38:16.296Z,98297.89
2023-03-28T21:40:55.364Z,98292.71
2023-03-28T21:43:33.910Z,98297.86
2023-03-28T21:46:14.226Z,98303.03
2023-03-28T21:48:52.617Z,98298.70
2023-03-28T21:51:30.306Z,98293.49
2023-03-28T21:54:06.780Z,98302.96
2023-03-28T21:56:39.927Z,98282.26
2023-03-28T21:59:13.135Z,98287.50
2023-03-28T22:01:46.135Z,98290.08
2023-03-28T22:04:19.441Z,98283.97
2023-03-28T22:06:53.394Z,98280.50
2023-03-28T22:09:28.178Z,98277.86
2023-03-28T22:12:02.877Z,98283.88
2023-03-28T22:14:36.488Z,98280.39
2023-03-28T22:17:09.946Z,98269.98
2023-03-28T22:19:43.861Z,98285.46
2023-03-28T22:22:17.874Z,98275.11
2023-03-28T22:24:51.315Z,98273.31
2023-03-28T22:27:24.510Z,98273.22
2023-03-28T22:29:57.860Z,98266.28
2023-03-28T22:32:31.021Z,98277.48
2023-03-28T22:35:04.668Z,98259.35
2023-03-28T22:37:37.634Z,98262.70
2023-03-28T22:40:13.104Z,98251.40
2023-03-28T22:42:47.011Z,98251.38
2023-03-28T22:45:20.356Z,98243.59
2023-03-28T22:47:54.565Z,98253.04
2023-03-28T22:50:28.625Z,98248.77
2023-03-28T22:53:04.502Z,98246.09
2023-03-28T22:55:38.304Z,98237.44
2023-03-28T22:58:11.879Z,98234.83
2023-03-28T23:00:46.429Z,98239.14
2023-03-28T23:03:19.669Z,98233.03
2023-03-28T23:05:54.326Z,98233.89
2023-03-28T23:08:28.345Z,98242.48
2023-03-28T23:11:01.939Z,98220.94
2023-03-28T23:13:35.329Z,98227.80
2023-03-28T23:16:10.539Z,98219.06
2023-03-28T23:18:44.041Z,98244.08
2023-03-28T23:21:17.285Z,98237.08
2023-03-28T23:23:50.395Z,98243.05
2023-03-28T23:26:23.185Z,98236.14
2023-03-28T23:28:56.435Z,98236.95
2023-03-28T23:31:29.526Z,98241.24
2023-03-28T23:34:02.650Z,98233.44
2023-03-28T23:36:36.019Z,98230.03
2023-03-28T23:39:11.114Z,98235.20
2023-03-28T23:41:44.499Z,98215.45
2023-03-28T23:44:17.717Z,98218.88
2023-03-28T23:46:50.859Z,98229.19
2023-03-28T23:49:23.911Z,98225.73
2023-03-28T23:51:57.229Z,98214.52
2023-03-28T23:54:30.988Z,98216.36
2023-03-28T23:57:05.748Z,98210.35
2023-03-28T23:59:38.869Z,98217.20
